KIMS

Madison Municipal Airport

Madison, Indiana, USA
METAR KIMS 201855Z AUTO 27016G26KT 10SM SCT060 16/00 A2990 RMK AO1
Observed Flight Rules
Oct-20 @ 18:55 UTC (25 minutes ago) Visual Flight Rules
Wind Visibility Clouds
270° at 16 knots
 Gusting to 26 knots
10 miles
  • Scattered at 6,000' AGL
Temperatures Readings
Current 16°C / 61°F
Dewpoint 0°C / 32°F
Humidity 34%
Altimeter 29.9" Hg
Pressure 1013 hPa
Elevation 250
METAR KIMS 201855Z AUTO 27016G26KT 10SM SCT060 16/00 A2990 RMK AO1
Observed Flight Rules
Oct-20 @ 18:55 UTC
(25 minutes ago)
VFR
Wind Visibility
270° at 16 knots
 Gusting to 26 knots
10 miles
Clouds
  • Scattered at 6,000' AGL
Temperature Dewpoint
16°C / 61°F 0°C / 32°F
Humidity Altimeter Pressure
34% 29.9" Hg 1013 hPa